New Paltz, NY (12561)

8:42 AM EDT on July 23, 2016 (GMT -0400)
SUNY New Paltz | | Change Station

Elev 322 ft 41.73 °N, 74.09 °W | Updated 41 seconds ago

Clear
Clear
80.4 °F
Feels Like 82 °F
N
0.9
Wind Variable Wind from West
Gusts 2.0 mph

Today
High -- | Low -- °F
--% Chance of Precip.
Yesterday
High -- | Low -- °F
Precip. -- in
Pressure 29.83 in
Visibility 10.0 miles
Clouds Clear
Heat Index 82 °F
Dew Point 65 °F
Humidity 59%
Rainfall 0.00 in
Snow Depth Not available.
5:42 AM 8:22 PM
Waning Gibbous, 85% visible
METAR KPOU 231153Z 18004KT 10SM CLR 26/19 A2984 RMK AO2 SLP099 70005 T02610189 10261 20211 51009
Pressure 29.83 in
Visibility 10.0 miles
Clouds Clear
Heat Index 82 °F
Dew Point 65 °F
Humidity 59%
Rainfall 0.00 in
Snow Depth Not available.
5:42 AM 8:22 PM
Waning Gibbous, 85% visible
METAR KPOU 231153Z 18004KT 10SM CLR 26/19 A2984 RMK AO2 SLP099 70005 T02610189 10261 20211 51009

10-Day Weather Forecast

Almanac

Astronomy

Jul. 23, 2016 Rise Set
Actual Time
Civil Twilight
Nautical Twilight
Astronomical Twilight
Moon
Length of Visible Light
Length of Day
Tomorrow will be .
, % of the Moon is Illuminated

Today's Extremes

State Highs State Lows

Community

WunderPhotos

Upload Photos

1,926,816 photos uploaded!

WunderBlog® & News

Nearby

Air Quality

  Air Quality AQ Index Pollutant
Not available.

Snow Depth

Station Depth Elevation

Earthquake Activity

City Distance Mag. Time & Date
Minimum magnitude displayed is 2.5.

Coastal Water Temperatures

Place Temperature

Stations

Nearby Weather Stations

Station Location Temp. Windchill Dew Point Humidity Wind Precip. Elev Updated Type
                   

Watches & Warnings

There are currently no watches in effect.